メインページ
METAR-TAF:

METAR-TAF

空港 :

ダラス / フォートワース, テキサス州, アメリカ合衆国

ダラス・フォートワース国際空港

緯度: 32-53-49N, 経度: 097-01-19W, 海抜: 183m

現時点の気象観測

当レポートは46分前の21:53(UTC)に作成
の風 9kt
気温 36°C
湿度 42%
気圧 1015 hPa
視程: 16.1km
高度6500ftの雲はほとんどない
高度30000ftの雲は散在している

METAR: KDFW 262153Z 18009KT 10SM FEW065 SCT300 36/21 A2996 RMK AO2 SLP135 T03610206

時間: 17:39 (22:39 UTC)

予報

当レポートは1時間40分前の20:59(UTC)に作成
予報は26日の 21時(UTC)から 27日の 24時(UTC)まで有効
の風 12kt
視程: 10km
高度5000ftの雲は散在している
27日の 0300時(UTC)から
の風 9kt
視程: 10km
高度25000ftの雲は散在している
27日の 1500時(UTC)から
南/南西の風 14kt
視程: 10km
高度5000ftの雲は散在している

TAF: KDFW 262059Z 2621/2724 18012KT P6SM SCT050 FM270300 18009KT P6SM SCT250 FM271500 20014KT P6SM SCT050

4,000以上の空港の気象観測と天気予報(METAR報とTAF報)

利用可能な観測所は地図上に黄色い丸と赤い丸で示す。

丸の上にカーソルを重ねると観測所名を参照できる。

次にクリックすると気象観測と天気予報を参照できる。

マップの切り替え:黒色「×」印の緑ボタンをクリックして拡大、「-」印の緑ボタンをクリックして縮小、緑色の三角印をクリックして隣りの地図に切り替え


METAR-TAF: